TimeEST,TemperatureF,Dew PointF,Humidity,Sea Level PressureIn,VisibilityMPH,Wind Direction,Wind SpeedMPH,Gust SpeedMPH,PrecipitationIn,Events,Conditions,WindDirDegrees,DateUTC
12:27 AM,35.1,32.0,89,29.52,4.0,Calm,Calm,-,N/A,,Overcast,0,2013-03-01 05:27:00
12:52 AM,36.0,33.1,89,29.52,5.0,NW,3.5,-,N/A,,Overcast,320,2013-03-01 05:52:00
1:02 AM,37.0,33.1,86,29.52,9.0,Calm,Calm,-,N/A,,Overcast,0,2013-03-01 06:02:00
1:52 AM,37.9,34.0,86,29.52,10.0,WNW,3.5,-,N/A,,Overcast,300,2013-03-01 06:52:00
2:52 AM,37.9,34.0,86,29.52,10.0,NW,4.6,-,N/A,,Overcast,310,2013-03-01 07:52:00
3:52 AM,37.9,33.1,83,29.53,10.0,NNW,3.5,-,N/A,,Overcast,330,2013-03-01 08:52:00
4:52 AM,37.9,33.1,83,29.55,10.0,NW,3.5,-,N/A,,Overcast,320,2013-03-01 09:52:00
4:55 AM,37.9,33.1,83,29.55,10.0,NW,3.5,-,N/A,,Overcast,320,2013-03-01 09:55:00
6:20 AM,35.1,32.0,89,29.56,7.0,NW,3.5,-,N/A,,Partly Cloudy,310,2013-03-01 11:20:00
6:37 AM,34.0,30.9,89,29.56,3.0,Calm,Calm,-,N/A,,Mostly Cloudy,0,2013-03-01 11:37:00
6:52 AM,34.0,30.9,89,29.57,4.0,West,3.5,-,N/A,,Overcast,280,2013-03-01 11:52:00
7:52 AM,37.9,33.1,83,29.59,10.0,WNW,3.5,-,N/A,,Overcast,300,2013-03-01 12:52:00
8:52 AM,41.0,32.0,70,29.60,10.0,NNW,6.9,-,N/A,,Overcast,340,2013-03-01 13:52:00
9:52 AM,42.1,30.0,62,29.61,10.0,North,5.8,-,N/A,,Overcast,350,2013-03-01 14:52:00
10:19 AM,42.1,28.9,60,29.61,10.0,North,10.4,-,N/A,,Overcast,350,2013-03-01 15:19:00
10:52 AM,43.0,28.0,56,29.61,10.0,NW,10.4,-,N/A,,Overcast,320,2013-03-01 15:52:00
12:52 PM,44.1,27.0,51,29.60,10.0,North,6.9,-,N/A,,Overcast,350,2013-03-01 17:52:00
1:52 PM,45.0,26.1,48,29.60,10.0,NNW,12.7,17.3,N/A,,Overcast,330,2013-03-01 18:52:00
2:52 PM,43.0,26.1,51,29.61,10.0,NNW,8.1,17.3,N/A,,Overcast,340,2013-03-01 19:52:00
3:52 PM,43.0,25.0,49,29.62,10.0,North,9.2,-,N/A,,Overcast,10,2013-03-01 20:52:00
4:52 PM,42.1,25.0,51,29.64,10.0,NNW,9.2,-,N/A,,Overcast,340,2013-03-01 21:52:00
5:52 PM,41.0,25.0,53,29.65,10.0,Variable,3.5,-,N/A,,Overcast,0,2013-03-01 22:52:00
7:52 PM,39.0,26.1,60,29.67,10.0,Calm,Calm,-,N/A,,Overcast,0,2013-03-02 00:52:00
8:52 PM,39.0,25.0,57,29.67,10.0,WNW,3.5,-,N/A,,Overcast,300,2013-03-02 01:52:00
10:52 PM,39.0,25.0,57,29.67,10.0,NW,5.8,-,N/A,,Overcast,320,2013-03-02 03:52:00
11:52 PM,37.9,25.0,60,29.67,10.0,NW,4.6,-,N/A,,Overcast,310,2013-03-02 04:52:00